Aérodrome :
LOGIN :

S'inscrire | Disclaimer

   EN    FR    IT 

 










Légende :    VFR   VFR Marginal   IFR   IFR Intensif   IFR Très Intensif
Visi : 
Plafond : 
>= 8 km
>= 3000ft
5 à 8 km
1000 à 3000 ft
1500m à 5 km
500 à 1000 ft
800 à 1500m
200 à 500 ft
< 800m
< 200 ft
Symboles :   Orages  Brouillard  Fortes neiges  Fortes précipitations  Vent > 20 kt
SIGMETs :   Divers  Orages  Givrage  Turbulence  Onde Orograph.  Cendres Volcan.







- Altitude de l'aérodrome : 124 ft
- Code IATA : RNS
- Voir les cartes d'approche


LFRN - Rennes

DERNIER METAR :
  • 181500Z AUTO 16011KT 9999 -RA SCT038/// BKN058/// OVC078/// ///TCU 08/07 Q1007 TEMPO 3000 RA BKN008 BECMG 16015G25KT

METARs EXPIRÉS :
  • 181430Z AUTO 16013KT 9999 -RA BKN045/// BKN052/// BKN062/// ///TCU 08/06 Q1007 TEMPO 3000 RA BKN008 BECMG 16015G25KT
  • 181400Z AUTO 16013KT 9999 -RA NSC 09/06 Q1007 TEMPO 3000 RA BKN008 BECMG 16015G25KT
  • 181330Z AUTO 17013KT 9999 -RA NSC 09/05 Q1008 BECMG 16015G25KT RA
  • 181300Z AUTO 16013KT CAVOK 09/05 Q1008 BECMG 16015G25KT RA
  • 181230Z AUTO 17014KT CAVOK 09/05 Q1009 BECMG 16015G25KT RA

TAF AMD TAF LFRN
Valide du 18 à 13h jusqu'au 19 à 12h UTC


181335Z 1813/1912 16015G25KT 9999 SCT045
BECMG 1813/1815 5000 RA BKN015
TEMPO 1815/1819 3000 RA BKN008
BECMG 1819/1821 22010KT 9999 NSW SCT030
TEMPO 1821/1903 5000 SHRA BKN030TCU
TEMPO 1902/1912 19015G30KT 3000 SHRA BKN020CB
PROB30
TEMPO 1906/1912 TSRA
ATIS : +33 2 99 67 72 50
Pas de NOTAMs connus pour ce terrain.
1 SIGMET publié pour la FIR Brest (LFRR) :
 
Turbulence forte
LFRR SIGMET 4 VALID 181300/181600 LFPW
LFRR BREST FIR/UIR SEV TURB FCST W OF LINE N4500 W00800 - N4915 W00715 FL180/320 MOV E 20KT NC=



MET'MAP, la Météo Aéronautique d'un coup d'oeil ! - Copyright ORBIFLY Décembre 2007 - Disclaimer

ORBIFLY MET'MAP TEAM :

Programmation & Développement : Alexandra Zaïnal
Conception & Développement : Baudouin d'Aumeries
Co-Programmation & Développement : Marc-Olivier Méhu
Soutien technique & logistique : Manuel Goepfert

Contact : metmap@orbifly.com




SOURCES & CREDITS :

   NOAA